sensor_id;sensor_type;location;lat;lon;timestamp;temperature;humidity
5061;DHT22;2549;52.128;21.068;2023-09-19T00:00:35;22.40;99.90
5061;DHT22;2549;52.128;21.068;2023-09-19T00:03:03;22.40;99.90
5061;DHT22;2549;52.128;21.068;2023-09-19T00:05:36;22.40;99.90
5061;DHT22;2549;52.128;21.068;2023-09-19T00:08:05;22.40;99.90
5061;DHT22;2549;52.128;21.068;2023-09-19T00:10:33;22.30;99.90
5061;DHT22;2549;52.128;21.068;2023-09-19T00:13:04;22.30;99.90
5061;DHT22;2549;52.128;21.068;2023-09-19T00:15:48;22.30;99.90
5061;DHT22;2549;52.128;21.068;2023-09-19T00:18:17;22.30;99.90
5061;DHT22;2549;52.128;21.068;2023-09-19T00:20:47;22.30;99.90
5061;DHT22;2549;52.128;21.068;2023-09-19T00:23:17;22.30;99.90
5061;DHT22;2549;52.128;21.068;2023-09-19T00:25:43;22.30;99.90
5061;DHT22;2549;52.128;21.068;2023-09-19T00:28:12;22.30;99.90
5061;DHT22;2549;52.128;21.068;2023-09-19T00:30:45;22.30;99.90
5061;DHT22;2549;52.128;21.068;2023-09-19T00:33:17;22.30;99.90
5061;DHT22;2549;52.128;21.068;2023-09-19T00:35:53;22.30;99.90
5061;DHT22;2549;52.128;21.068;2023-09-19T00:38:21;22.30;99.90
5061;DHT22;2549;52.128;21.068;2023-09-19T00:40:50;22.20;99.90
5061;DHT22;2549;52.128;21.068;2023-09-19T00:43:17;22.30;99.90
5061;DHT22;2549;52.128;21.068;2023-09-19T00:45:47;22.30;99.90
5061;DHT22;2549;52.128;21.068;2023-09-19T00:48:19;22.20;99.90
5061;DHT22;2549;52.128;21.068;2023-09-19T00:50:47;22.20;99.90
5061;DHT22;2549;52.128;21.068;2023-09-19T00:53:19;22.20;99.90
5061;DHT22;2549;52.128;21.068;2023-09-19T00:55:48;22.20;99.90
5061;DHT22;2549;52.128;21.068;2023-09-19T00:58:17;22.20;99.90
5061;DHT22;2549;52.128;21.068;2023-09-19T01:00:46;22.20;99.90
5061;DHT22;2549;52.128;21.068;2023-09-19T01:03:13;22.20;99.90
5061;DHT22;2549;52.128;21.068;2023-09-19T01:05:41;22.20;99.90
5061;DHT22;2549;52.128;21.068;2023-09-19T01:08:09;22.20;99.90
5061;DHT22;2549;52.128;21.068;2023-09-19T01:11:01;22.20;99.90
5061;DHT22;2549;52.128;21.068;2023-09-19T01:13:44;22.10;99.90
5061;DHT22;2549;52.128;21.068;2023-09-19T01:30:32;22.10;99.90
5061;DHT22;2549;52.128;21.068;2023-09-19T01:32:59;22.10;99.90
5061;DHT22;2549;52.128;21.068;2023-09-19T01:35:27;22.10;99.90
5061;DHT22;2549;52.128;21.068;2023-09-19T01:37:53;22.10;99.90
5061;DHT22;2549;52.128;21.068;2023-09-19T01:40:21;22.10;99.90
5061;DHT22;2549;52.128;21.068;2023-09-19T01:42:57;22.10;99.90
5061;DHT22;2549;52.128;21.068;2023-09-19T01:51:05;22.10;99.90
5061;DHT22;2549;52.128;21.068;2023-09-19T01:54:00;22.10;99.90
5061;DHT22;2549;52.128;21.068;2023-09-19T01:56:37;22.10;99.90
5061;DHT22;2549;52.128;21.068;2023-09-19T01:59:13;22.10;99.90
5061;DHT22;2549;52.128;21.068;2023-09-19T02:01:42;22.20;99.90
5061;DHT22;2549;52.128;21.068;2023-09-19T02:04:11;22.10;99.90
5061;DHT22;2549;52.128;21.068;2023-09-19T02:06:41;22.20;99.90
5061;DHT22;2549;52.128;21.068;2023-09-19T02:09:09;22.10;99.90
5061;DHT22;2549;52.128;21.068;2023-09-19T02:11:35;22.10;99.90
5061;DHT22;2549;52.128;21.068;2023-09-19T02:14:03;22.20;99.90
5061;DHT22;2549;52.128;21.068;2023-09-19T02:16:31;22.10;99.90
5061;DHT22;2549;52.128;21.068;2023-09-19T02:18:58;22.10;99.90
5061;DHT22;2549;52.128;21.068;2023-09-19T02:21:26;22.10;99.90
5061;DHT22;2549;52.128;21.068;2023-09-19T02:23:56;22.10;99.90
5061;DHT22;2549;52.128;21.068;2023-09-19T02:26:23;22.10;99.90
5061;DHT22;2549;52.128;21.068;2023-09-19T02:28:50;22.10;99.90
5061;DHT22;2549;52.128;21.068;2023-09-19T02:31:17;22.10;99.90
5061;DHT22;2549;52.128;21.068;2023-09-19T02:33:44;22.10;99.90
5061;DHT22;2549;52.128;21.068;2023-09-19T02:36:12;22.10;99.90
5061;DHT22;2549;52.128;21.068;2023-09-19T02:38:44;22.00;99.90
5061;DHT22;2549;52.128;21.068;2023-09-19T02:41:10;22.00;99.90
5061;DHT22;2549;52.128;21.068;2023-09-19T02:43:38;21.90;99.90
5061;DHT22;2549;52.128;21.068;2023-09-19T02:46:06;21.90;99.90
5061;DHT22;2549;52.128;21.068;2023-09-19T02:48:33;22.00;99.90
5061;DHT22;2549;52.128;21.068;2023-09-19T02:51:02;21.90;99.90
5061;DHT22;2549;52.128;21.068;2023-09-19T02:53:32;21.90;99.90
5061;DHT22;2549;52.128;21.068;2023-09-19T02:55:59;21.90;99.90
5061;DHT22;2549;52.128;21.068;2023-09-19T02:58:26;21.90;99.90
5061;DHT22;2549;52.128;21.068;2023-09-19T03:00:54;21.90;99.90
5061;DHT22;2549;52.128;21.068;2023-09-19T03:03:22;21.80;99.90
5061;DHT22;2549;52.128;21.068;2023-09-19T03:05:49;21.80;99.90
5061;DHT22;2549;52.128;21.068;2023-09-19T03:08:20;21.80;99.90
5061;DHT22;2549;52.128;21.068;2023-09-19T03:10:48;21.70;99.90
5061;DHT22;2549;52.128;21.068;2023-09-19T03:13:15;21.70;99.90
5061;DHT22;2549;52.128;21.068;2023-09-19T03:15:43;21.70;99.90
5061;DHT22;2549;52.128;21.068;2023-09-19T03:18:14;21.70;99.90
5061;DHT22;2549;52.128;21.068;2023-09-19T03:20:41;21.70;99.90
5061;DHT22;2549;52.128;21.068;2023-09-19T03:23:08;21.70;99.90
5061;DHT22;2549;52.128;21.068;2023-09-19T03:25:35;21.60;99.90
5061;DHT22;2549;52.128;21.068;2023-09-19T03:28:04;21.60;99.90
5061;DHT22;2549;52.128;21.068;2023-09-19T03:30:32;21.60;99.90
5061;DHT22;2549;52.128;21.068;2023-09-19T03:33:00;21.60;99.90
5061;DHT22;2549;52.128;21.068;2023-09-19T03:35:27;21.60;99.90
5061;DHT22;2549;52.128;21.068;2023-09-19T03:37:54;21.60;99.90
5061;DHT22;2549;52.128;21.068;2023-09-19T03:40:21;21.60;99.90
5061;DHT22;2549;52.128;21.068;2023-09-19T03:42:50;21.60;99.90
5061;DHT22;2549;52.128;21.068;2023-09-19T03:45:17;21.60;99.90
5061;DHT22;2549;52.128;21.068;2023-09-19T03:47:45;21.60;99.90
5061;DHT22;2549;52.128;21.068;2023-09-19T03:50:15;21.60;99.90
5061;DHT22;2549;52.128;21.068;2023-09-19T03:52:44;21.50;99.90
5061;DHT22;2549;52.128;21.068;2023-09-19T03:55:12;21.60;99.90
5061;DHT22;2549;52.128;21.068;2023-09-19T03:57:39;21.60;99.90
5061;DHT22;2549;52.128;21.068;2023-09-19T04:00:06;21.50;99.90
5061;DHT22;2549;52.128;21.068;2023-09-19T04:02:39;21.50;99.90
5061;DHT22;2549;52.128;21.068;2023-09-19T04:05:07;21.50;99.90
5061;DHT22;2549;52.128;21.068;2023-09-19T04:07:34;21.50;99.90
5061;DHT22;2549;52.128;21.068;2023-09-19T04:10:01;21.50;99.90
5061;DHT22;2549;52.128;21.068;2023-09-19T04:12:29;21.50;99.90
5061;DHT22;2549;52.128;21.068;2023-09-19T04:14:56;21.50;99.90
5061;DHT22;2549;52.128;21.068;2023-09-19T04:17:22;21.50;99.90
5061;DHT22;2549;52.128;21.068;2023-09-19T04:19:50;21.50;99.90
5061;DHT22;2549;52.128;21.068;2023-09-19T04:22:17;21.50;99.90
5061;DHT22;2549;52.128;21.068;2023-09-19T04:24:44;21.50;99.90
5061;DHT22;2549;52.128;21.068;2023-09-19T04:27:11;21.50;99.90
5061;DHT22;2549;52.128;21.068;2023-09-19T04:29:41;21.50;99.90
5061;DHT22;2549;52.128;21.068;2023-09-19T04:32:08;21.50;99.90
5061;DHT22;2549;52.128;21.068;2023-09-19T04:34:36;21.50;99.90
5061;DHT22;2549;52.128;21.068;2023-09-19T04:37:06;21.50;99.90
5061;DHT22;2549;52.128;21.068;2023-09-19T04:39:33;21.50;99.90
5061;DHT22;2549;52.128;21.068;2023-09-19T04:42:00;21.50;99.90
5061;DHT22;2549;52.128;21.068;2023-09-19T04:44:27;21.50;99.90
5061;DHT22;2549;52.128;21.068;2023-09-19T04:46:54;21.50;99.90
5061;DHT22;2549;52.128;21.068;2023-09-19T04:49:21;21.50;99.90
5061;DHT22;2549;52.128;21.068;2023-09-19T04:51:48;21.50;99.90
5061;DHT22;2549;52.128;21.068;2023-09-19T04:54:15;21.60;99.90
5061;DHT22;2549;52.128;21.068;2023-09-19T04:56:42;21.60;99.90
5061;DHT22;2549;52.128;21.068;2023-09-19T04:59:09;21.60;99.90
5061;DHT22;2549;52.128;21.068;2023-09-19T05:01:37;21.60;99.90
5061;DHT22;2549;52.128;21.068;2023-09-19T05:04:04;21.60;99.90
5061;DHT22;2549;52.128;21.068;2023-09-19T05:06:32;21.60;99.90
5061;DHT22;2549;52.128;21.068;2023-09-19T05:09:00;21.60;99.90
5061;DHT22;2549;52.128;21.068;2023-09-19T05:11:27;21.60;99.90
5061;DHT22;2549;52.128;21.068;2023-09-19T05:13:54;21.60;99.90
5061;DHT22;2549;52.128;21.068;2023-09-19T05:16:21;21.60;99.90
5061;DHT22;2549;52.128;21.068;2023-09-19T05:18:49;21.60;99.90
5061;DHT22;2549;52.128;21.068;2023-09-19T05:21:16;21.60;99.90
5061;DHT22;2549;52.128;21.068;2023-09-19T05:23:44;21.60;99.90
5061;DHT22;2549;52.128;21.068;2023-09-19T05:26:11;21.70;99.90
5061;DHT22;2549;52.128;21.068;2023-09-19T05:28:39;21.70;99.90
5061;DHT22;2549;52.128;21.068;2023-09-19T05:31:06;21.70;99.90
5061;DHT22;2549;52.128;21.068;2023-09-19T05:33:33;21.70;99.90
5061;DHT22;2549;52.128;21.068;2023-09-19T05:36:00;21.70;99.90
5061;DHT22;2549;52.128;21.068;2023-09-19T05:38:27;21.70;99.90
5061;DHT22;2549;52.128;21.068;2023-09-19T05:40:54;21.70;99.90
5061;DHT22;2549;52.128;21.068;2023-09-19T05:43:21;21.70;99.90
5061;DHT22;2549;52.128;21.068;2023-09-19T05:45:49;21.80;99.90
5061;DHT22;2549;52.128;21.068;2023-09-19T05:48:19;21.80;99.90
5061;DHT22;2549;52.128;21.068;2023-09-19T05:50:48;21.80;99.90
5061;DHT22;2549;52.128;21.068;2023-09-19T05:53:15;21.80;99.90
5061;DHT22;2549;52.128;21.068;2023-09-19T05:55:43;21.80;99.90
5061;DHT22;2549;52.128;21.068;2023-09-19T05:58:10;21.80;99.90
5061;DHT22;2549;52.128;21.068;2023-09-19T06:00:40;21.90;99.90
5061;DHT22;2549;52.128;21.068;2023-09-19T06:03:09;21.90;99.90
5061;DHT22;2549;52.128;21.068;2023-09-19T06:05:38;21.90;99.90
5061;DHT22;2549;52.128;21.068;2023-09-19T06:08:06;22.00;99.90
5061;DHT22;2549;52.128;21.068;2023-09-19T06:10:35;22.00;99.90
5061;DHT22;2549;52.128;21.068;2023-09-19T06:13:03;22.00;99.90
5061;DHT22;2549;52.128;21.068;2023-09-19T06:15:33;22.00;99.90
5061;DHT22;2549;52.128;21.068;2023-09-19T06:18:02;22.00;99.90
5061;DHT22;2549;52.128;21.068;2023-09-19T06:20:32;22.00;99.90
5061;DHT22;2549;52.128;21.068;2023-09-19T06:23:00;22.00;99.90
5061;DHT22;2549;52.128;21.068;2023-09-19T06:25:29;22.10;99.90
5061;DHT22;2549;52.128;21.068;2023-09-19T06:27:56;22.10;99.90
5061;DHT22;2549;52.128;21.068;2023-09-19T06:30:24;22.10;99.90
5061;DHT22;2549;52.128;21.068;2023-09-19T06:32:56;22.10;99.90
5061;DHT22;2549;52.128;21.068;2023-09-19T06:35:24;22.10;99.90
5061;DHT22;2549;52.128;21.068;2023-09-19T06:37:53;22.10;99.90
5061;DHT22;2549;52.128;21.068;2023-09-19T06:40:20;22.20;99.90
5061;DHT22;2549;52.128;21.068;2023-09-19T06:42:50;22.10;99.90
5061;DHT22;2549;52.128;21.068;2023-09-19T06:45:18;22.10;99.90
5061;DHT22;2549;52.128;21.068;2023-09-19T06:47:46;22.10;99.90
5061;DHT22;2549;52.128;21.068;2023-09-19T06:50:20;22.10;99.90
5061;DHT22;2549;52.128;21.068;2023-09-19T06:52:51;22.10;99.90
5061;DHT22;2549;52.128;21.068;2023-09-19T06:55:19;22.20;99.90
5061;DHT22;2549;52.128;21.068;2023-09-19T06:57:47;22.20;99.90
5061;DHT22;2549;52.128;21.068;2023-09-19T07:00:15;22.20;99.90
5061;DHT22;2549;52.128;21.068;2023-09-19T07:02:54;22.30;99.90
5061;DHT22;2549;52.128;21.068;2023-09-19T07:05:21;22.30;99.90
5061;DHT22;2549;52.128;21.068;2023-09-19T07:07:48;22.30;99.90
5061;DHT22;2549;52.128;21.068;2023-09-19T07:10:16;22.40;99.90
5061;DHT22;2549;52.128;21.068;2023-09-19T07:12:43;22.40;99.90
5061;DHT22;2549;52.128;21.068;2023-09-19T07:15:10;22.40;99.90
5061;DHT22;2549;52.128;21.068;2023-09-19T07:17:37;22.40;99.90
5061;DHT22;2549;52.128;21.068;2023-09-19T07:20:04;22.50;99.90
5061;DHT22;2549;52.128;21.068;2023-09-19T07:22:34;22.50;99.90
5061;DHT22;2549;52.128;21.068;2023-09-19T07:25:03;22.50;99.90
5061;DHT22;2549;52.128;21.068;2023-09-19T07:27:30;22.60;99.90
5061;DHT22;2549;52.128;21.068;2023-09-19T07:29:57;22.60;99.90
5061;DHT22;2549;52.128;21.068;2023-09-19T07:32:23;22.70;99.90
5061;DHT22;2549;52.128;21.068;2023-09-19T07:34:51;22.70;99.90
5061;DHT22;2549;52.128;21.068;2023-09-19T07:37:18;22.80;99.90
5061;DHT22;2549;52.128;21.068;2023-09-19T07:39:45;22.90;99.90
5061;DHT22;2549;52.128;21.068;2023-09-19T07:42:12;22.90;99.90
5061;DHT22;2549;52.128;21.068;2023-09-19T07:44:44;22.90;99.90
5061;DHT22;2549;52.128;21.068;2023-09-19T07:47:14;22.90;99.90
5061;DHT22;2549;52.128;21.068;2023-09-19T07:49:41;22.90;99.90
5061;DHT22;2549;52.128;21.068;2023-09-19T07:52:09;22.90;99.90
5061;DHT22;2549;52.128;21.068;2023-09-19T07:54:37;23.00;99.90
5061;DHT22;2549;52.128;21.068;2023-09-19T07:57:05;23.00;99.90
5061;DHT22;2549;52.128;21.068;2023-09-19T07:59:32;23.00;99.90
5061;DHT22;2549;52.128;21.068;2023-09-19T08:01:59;23.00;99.90
5061;DHT22;2549;52.128;21.068;2023-09-19T08:04:28;23.10;99.90
5061;DHT22;2549;52.128;21.068;2023-09-19T08:06:55;23.00;99.90
5061;DHT22;2549;52.128;21.068;2023-09-19T08:09:22;23.10;99.90
5061;DHT22;2549;52.128;21.068;2023-09-19T08:11:51;23.10;99.90
5061;DHT22;2549;52.128;21.068;2023-09-19T08:14:18;23.10;99.90
5061;DHT22;2549;52.128;21.068;2023-09-19T08:16:45;23.10;99.90
5061;DHT22;2549;52.128;21.068;2023-09-19T08:19:12;23.20;99.90
5061;DHT22;2549;52.128;21.068;2023-09-19T08:21:39;23.20;99.90
5061;DHT22;2549;52.128;21.068;2023-09-19T08:24:06;23.30;99.90
5061;DHT22;2549;52.128;21.068;2023-09-19T08:26:33;23.30;99.90
5061;DHT22;2549;52.128;21.068;2023-09-19T08:29:00;23.30;99.90
5061;DHT22;2549;52.128;21.068;2023-09-19T08:31:32;23.30;99.90
5061;DHT22;2549;52.128;21.068;2023-09-19T08:34:00;23.30;99.90
5061;DHT22;2549;52.128;21.068;2023-09-19T08:36:27;23.20;99.90
5061;DHT22;2549;52.128;21.068;2023-09-19T08:38:54;23.30;99.90
5061;DHT22;2549;52.128;21.068;2023-09-19T08:41:21;23.20;99.90
5061;DHT22;2549;52.128;21.068;2023-09-19T08:43:48;23.20;99.90
5061;DHT22;2549;52.128;21.068;2023-09-19T08:46:15;23.30;99.90
5061;DHT22;2549;52.128;21.068;2023-09-19T08:48:57;23.20;99.90
5061;DHT22;2549;52.128;21.068;2023-09-19T08:51:33;23.20;99.90
5061;DHT22;2549;52.128;21.068;2023-09-19T08:54:08;23.30;99.90
5061;DHT22;2549;52.128;21.068;2023-09-19T08:56:37;23.30;99.90
5061;DHT22;2549;52.128;21.068;2023-09-19T08:59:06;23.20;99.90
5061;DHT22;2549;52.128;21.068;2023-09-19T09:01:40;23.30;99.90
5061;DHT22;2549;52.128;21.068;2023-09-19T09:04:09;23.20;99.90
5061;DHT22;2549;52.128;21.068;2023-09-19T09:06:41;23.20;99.90
5061;DHT22;2549;52.128;21.068;2023-09-19T09:09:10;23.20;99.90
5061;DHT22;2549;52.128;21.068;2023-09-19T09:11:38;23.30;99.90
5061;DHT22;2549;52.128;21.068;2023-09-19T09:14:07;23.20;99.90
5061;DHT22;2549;52.128;21.068;2023-09-19T09:16:34;23.20;99.90
5061;DHT22;2549;52.128;21.068;2023-09-19T09:19:01;23.30;99.90
5061;DHT22;2549;52.128;21.068;2023-09-19T09:21:28;23.30;99.90
5061;DHT22;2549;52.128;21.068;2023-09-19T09:23:55;23.20;99.90
5061;DHT22;2549;52.128;21.068;2023-09-19T09:26:42;23.20;99.90
5061;DHT22;2549;52.128;21.068;2023-09-19T09:29:09;23.30;99.90
5061;DHT22;2549;52.128;21.068;2023-09-19T09:31:36;23.30;99.90
5061;DHT22;2549;52.128;21.068;2023-09-19T09:34:04;23.30;99.90
5061;DHT22;2549;52.128;21.068;2023-09-19T09:36:38;23.20;99.90
5061;DHT22;2549;52.128;21.068;2023-09-19T09:39:08;23.10;99.90
5061;DHT22;2549;52.128;21.068;2023-09-19T09:41:52;23.10;99.90
5061;DHT22;2549;52.128;21.068;2023-09-19T09:44:19;23.10;99.90
5061;DHT22;2549;52.128;21.068;2023-09-19T09:46:47;23.10;99.90
5061;DHT22;2549;52.128;21.068;2023-09-19T09:49:27;23.10;99.90
5061;DHT22;2549;52.128;21.068;2023-09-19T09:52:05;23.10;99.90
5061;DHT22;2549;52.128;21.068;2023-09-19T09:54:37;23.00;99.90
5061;DHT22;2549;52.128;21.068;2023-09-19T09:57:10;23.00;99.90
5061;DHT22;2549;52.128;21.068;2023-09-19T09:59:59;23.00;99.90
5061;DHT22;2549;52.128;21.068;2023-09-19T10:02:43;23.00;99.90
5061;DHT22;2549;52.128;21.068;2023-09-19T10:05:20;23.00;99.90
5061;DHT22;2549;52.128;21.068;2023-09-19T10:07:54;23.00;99.90
5061;DHT22;2549;52.128;21.068;2023-09-19T10:10:37;23.00;99.90
5061;DHT22;2549;52.128;21.068;2023-09-19T10:13:12;22.90;99.90
5061;DHT22;2549;52.128;21.068;2023-09-19T10:15:42;22.90;99.90
5061;DHT22;2549;52.128;21.068;2023-09-19T10:18:25;22.90;99.90
5061;DHT22;2549;52.128;21.068;2023-09-19T10:20:53;22.70;99.90
5061;DHT22;2549;52.128;21.068;2023-09-19T10:23:22;22.70;99.90
5061;DHT22;2549;52.128;21.068;2023-09-19T10:25:50;22.70;99.90
5061;DHT22;2549;52.128;21.068;2023-09-19T10:28:20;22.70;99.90
5061;DHT22;2549;52.128;21.068;2023-09-19T10:30:50;22.70;99.90
5061;DHT22;2549;52.128;21.068;2023-09-19T10:33:20;22.70;99.90
5061;DHT22;2549;52.128;21.068;2023-09-19T10:35:50;22.70;99.90
5061;DHT22;2549;52.128;21.068;2023-09-19T10:38:23;22.70;99.90
5061;DHT22;2549;52.128;21.068;2023-09-19T10:40:55;22.70;99.90
5061;DHT22;2549;52.128;21.068;2023-09-19T10:43:30;22.70;99.90
5061;DHT22;2549;52.128;21.068;2023-09-19T10:46:06;22.70;99.90
5061;DHT22;2549;52.128;21.068;2023-09-19T10:48:34;22.70;99.90
5061;DHT22;2549;52.128;21.068;2023-09-19T10:51:16;22.80;99.90
5061;DHT22;2549;52.128;21.068;2023-09-19T10:54:00;22.70;99.90
5061;DHT22;2549;52.128;21.068;2023-09-19T10:56:34;22.80;99.90
5061;DHT22;2549;52.128;21.068;2023-09-19T10:59:09;22.80;99.90
5061;DHT22;2549;52.128;21.068;2023-09-19T11:01:51;22.80;99.90
5061;DHT22;2549;52.128;21.068;2023-09-19T11:04:34;22.80;99.90
5061;DHT22;2549;52.128;21.068;2023-09-19T11:07:10;22.80;99.90
5061;DHT22;2549;52.128;21.068;2023-09-19T11:09:46;22.80;99.90
5061;DHT22;2549;52.128;21.068;2023-09-19T11:26:51;22.90;99.90
5061;DHT22;2549;52.128;21.068;2023-09-19T11:29:27;22.90;99.90
5061;DHT22;2549;52.128;21.068;2023-09-19T11:31:55;22.80;99.90
5061;DHT22;2549;52.128;21.068;2023-09-19T11:38:05;22.90;99.90
5061;DHT22;2549;52.128;21.068;2023-09-19T11:40:12;22.90;99.90
5061;DHT22;2549;52.128;21.068;2023-09-19T11:42:44;22.90;99.90
5061;DHT22;2549;52.128;21.068;2023-09-19T11:46:04;23.00;99.90
5061;DHT22;2549;52.128;21.068;2023-09-19T11:48:24;23.00;99.90
5061;DHT22;2549;52.128;21.068;2023-09-19T11:50:53;23.00;99.90
5061;DHT22;2549;52.128;21.068;2023-09-19T11:53:21;23.00;99.90
5061;DHT22;2549;52.128;21.068;2023-09-19T11:55:49;23.00;99.90
5061;DHT22;2549;52.128;21.068;2023-09-19T11:58:17;23.00;99.90
5061;DHT22;2549;52.128;21.068;2023-09-19T12:00:54;23.10;99.90
5061;DHT22;2549;52.128;21.068;2023-09-19T12:03:29;23.10;99.90
5061;DHT22;2549;52.128;21.068;2023-09-19T12:05:58;23.10;99.90
5061;DHT22;2549;52.128;21.068;2023-09-19T12:08:25;23.10;99.90
5061;DHT22;2549;52.128;21.068;2023-09-19T12:10:54;23.10;99.90
5061;DHT22;2549;52.128;21.068;2023-09-19T12:13:22;23.10;99.90
5061;DHT22;2549;52.128;21.068;2023-09-19T12:15:49;23.10;99.90
5061;DHT22;2549;52.128;21.068;2023-09-19T12:18:29;23.10;99.90
5061;DHT22;2549;52.128;21.068;2023-09-19T12:20:57;23.10;99.90
5061;DHT22;2549;52.128;21.068;2023-09-19T12:23:29;23.10;99.90
5061;DHT22;2549;52.128;21.068;2023-09-19T12:25:56;23.00;99.90
5061;DHT22;2549;52.128;21.068;2023-09-19T12:28:27;23.00;99.90
5061;DHT22;2549;52.128;21.068;2023-09-19T12:31:06;23.10;99.90
5061;DHT22;2549;52.128;21.068;2023-09-19T12:33:34;23.00;99.90
5061;DHT22;2549;52.128;21.068;2023-09-19T12:36:22;23.00;99.90
5061;DHT22;2549;52.128;21.068;2023-09-19T12:38:56;23.00;99.90
5061;DHT22;2549;52.128;21.068;2023-09-19T12:41:26;23.00;99.90
5061;DHT22;2549;52.128;21.068;2023-09-19T12:43:53;23.00;99.90
5061;DHT22;2549;52.128;21.068;2023-09-19T12:46:24;23.00;99.90
5061;DHT22;2549;52.128;21.068;2023-09-19T12:49:17;23.00;99.90
5061;DHT22;2549;52.128;21.068;2023-09-19T12:51:48;23.00;99.90
5061;DHT22;2549;52.128;21.068;2023-09-19T12:54:16;23.00;99.90
5061;DHT22;2549;52.128;21.068;2023-09-19T12:56:44;23.00;99.90
5061;DHT22;2549;52.128;21.068;2023-09-19T12:59:15;23.00;99.90
5061;DHT22;2549;52.128;21.068;2023-09-19T13:01:43;23.00;99.90
5061;DHT22;2549;52.128;21.068;2023-09-19T13:06:50;23.10;99.90
5061;DHT22;2549;52.128;21.068;2023-09-19T13:09:22;23.10;99.90
5061;DHT22;2549;52.128;21.068;2023-09-19T13:11:51;23.10;99.90
5061;DHT22;2549;52.128;21.068;2023-09-19T13:14:26;23.10;99.90
5061;DHT22;2549;52.128;21.068;2023-09-19T13:17:03;23.10;99.90
5061;DHT22;2549;52.128;21.068;2023-09-19T13:19:45;23.10;99.90
5061;DHT22;2549;52.128;21.068;2023-09-19T13:22:41;23.20;99.90
5061;DHT22;2549;52.128;21.068;2023-09-19T13:25:20;23.20;99.90
5061;DHT22;2549;52.128;21.068;2023-09-19T13:27:51;23.20;99.90
5061;DHT22;2549;52.128;21.068;2023-09-19T13:30:20;23.20;99.90
5061;DHT22;2549;52.128;21.068;2023-09-19T13:32:47;23.20;99.90
5061;DHT22;2549;52.128;21.068;2023-09-19T13:35:15;23.20;99.90
5061;DHT22;2549;52.128;21.068;2023-09-19T13:37:43;23.20;99.90
5061;DHT22;2549;52.128;21.068;2023-09-19T13:40:13;23.20;99.90
5061;DHT22;2549;52.128;21.068;2023-09-19T13:42:41;23.20;99.90
5061;DHT22;2549;52.128;21.068;2023-09-19T13:45:08;23.30;99.90
5061;DHT22;2549;52.128;21.068;2023-09-19T13:47:39;23.30;99.90
5061;DHT22;2549;52.128;21.068;2023-09-19T13:50:07;23.30;99.90
5061;DHT22;2549;52.128;21.068;2023-09-19T13:52:35;23.30;99.90
5061;DHT22;2549;52.128;21.068;2023-09-19T13:55:02;23.30;99.90
5061;DHT22;2549;52.128;21.068;2023-09-19T13:57:29;23.30;99.90
5061;DHT22;2549;52.128;21.068;2023-09-19T13:59:56;23.30;99.90
5061;DHT22;2549;52.128;21.068;2023-09-19T14:02:23;23.30;99.90
5061;DHT22;2549;52.128;21.068;2023-09-19T14:04:52;23.30;99.90
5061;DHT22;2549;52.128;21.068;2023-09-19T14:07:19;23.20;99.90
5061;DHT22;2549;52.128;21.068;2023-09-19T14:09:47;23.30;99.90
5061;DHT22;2549;52.128;21.068;2023-09-19T14:12:14;23.30;99.90
5061;DHT22;2549;52.128;21.068;2023-09-19T14:14:41;23.30;99.90
5061;DHT22;2549;52.128;21.068;2023-09-19T14:17:08;23.30;99.90
5061;DHT22;2549;52.128;21.068;2023-09-19T14:19:36;23.30;99.90
5061;DHT22;2549;52.128;21.068;2023-09-19T14:22:04;23.30;99.90
5061;DHT22;2549;52.128;21.068;2023-09-19T14:24:35;23.30;99.90
5061;DHT22;2549;52.128;21.068;2023-09-19T14:27:03;23.30;99.90
5061;DHT22;2549;52.128;21.068;2023-09-19T14:29:32;23.30;99.90
5061;DHT22;2549;52.128;21.068;2023-09-19T14:32:00;23.30;99.90
5061;DHT22;2549;52.128;21.068;2023-09-19T14:34:27;23.30;99.90
5061;DHT22;2549;52.128;21.068;2023-09-19T14:36:54;23.20;99.90
5061;DHT22;2549;52.128;21.068;2023-09-19T14:39:21;23.20;99.90
5061;DHT22;2549;52.128;21.068;2023-09-19T14:41:48;23.10;99.90
5061;DHT22;2549;52.128;21.068;2023-09-19T14:44:15;23.10;99.90
5061;DHT22;2549;52.128;21.068;2023-09-19T14:46:43;23.10;99.90
5061;DHT22;2549;52.128;21.068;2023-09-19T14:49:12;23.10;99.90
5061;DHT22;2549;52.128;21.068;2023-09-19T14:51:39;23.00;99.90
5061;DHT22;2549;52.128;21.068;2023-09-19T14:54:10;23.00;99.90
5061;DHT22;2549;52.128;21.068;2023-09-19T14:56:37;23.00;99.90
5061;DHT22;2549;52.128;21.068;2023-09-19T14:59:04;23.00;99.90
5061;DHT22;2549;52.128;21.068;2023-09-19T15:01:31;23.00;99.90
5061;DHT22;2549;52.128;21.068;2023-09-19T15:03:59;23.00;99.90
5061;DHT22;2549;52.128;21.068;2023-09-19T15:06:28;23.00;99.90
5061;DHT22;2549;52.128;21.068;2023-09-19T15:08:55;23.10;99.90
5061;DHT22;2549;52.128;21.068;2023-09-19T15:11:22;23.00;99.90
5061;DHT22;2549;52.128;21.068;2023-09-19T15:13:51;23.00;99.90
5061;DHT22;2549;52.128;21.068;2023-09-19T15:16:20;23.00;99.90
5061;DHT22;2549;52.128;21.068;2023-09-19T15:18:47;23.00;99.90
5061;DHT22;2549;52.128;21.068;2023-09-19T15:21:15;23.00;99.90
5061;DHT22;2549;52.128;21.068;2023-09-19T15:23:43;23.00;99.90
5061;DHT22;2549;52.128;21.068;2023-09-19T15:26:13;23.00;99.90
5061;DHT22;2549;52.128;21.068;2023-09-19T15:28:40;23.00;99.90
5061;DHT22;2549;52.128;21.068;2023-09-19T15:31:10;23.00;99.90
5061;DHT22;2549;52.128;21.068;2023-09-19T15:33:37;23.00;99.90
5061;DHT22;2549;52.128;21.068;2023-09-19T15:36:04;23.00;99.90
5061;DHT22;2549;52.128;21.068;2023-09-19T15:43:56;23.00;99.90
5061;DHT22;2549;52.128;21.068;2023-09-19T15:46:26;23.00;99.90
5061;DHT22;2549;52.128;21.068;2023-09-19T15:49:02;23.00;99.90
5061;DHT22;2549;52.128;21.068;2023-09-19T15:51:29;23.10;99.90
5061;DHT22;2549;52.128;21.068;2023-09-19T15:53:57;23.00;99.90
5061;DHT22;2549;52.128;21.068;2023-09-19T15:56:26;23.00;99.90
5061;DHT22;2549;52.128;21.068;2023-09-19T15:58:54;23.00;99.90
5061;DHT22;2549;52.128;21.068;2023-09-19T16:01:22;23.00;99.90
5061;DHT22;2549;52.128;21.068;2023-09-19T16:03:51;23.00;99.90
5061;DHT22;2549;52.128;21.068;2023-09-19T16:06:32;23.00;99.90
5061;DHT22;2549;52.128;21.068;2023-09-19T16:08:59;23.00;99.90
5061;DHT22;2549;52.128;21.068;2023-09-19T16:11:27;23.00;99.90
5061;DHT22;2549;52.128;21.068;2023-09-19T16:13:55;23.00;99.90
5061;DHT22;2549;52.128;21.068;2023-09-19T16:16:23;23.00;99.90
5061;DHT22;2549;52.128;21.068;2023-09-19T16:18:55;23.00;99.90
5061;DHT22;2549;52.128;21.068;2023-09-19T16:21:30;22.90;99.90
5061;DHT22;2549;52.128;21.068;2023-09-19T16:23:58;22.90;99.90
5061;DHT22;2549;52.128;21.068;2023-09-19T16:26:27;22.90;99.90
5061;DHT22;2549;52.128;21.068;2023-09-19T16:28:57;22.90;99.90
5061;DHT22;2549;52.128;21.068;2023-09-19T16:31:28;22.80;99.90
5061;DHT22;2549;52.128;21.068;2023-09-19T16:33:56;22.80;99.90
5061;DHT22;2549;52.128;21.068;2023-09-19T16:36:23;22.80;99.90
5061;DHT22;2549;52.128;21.068;2023-09-19T16:38:51;22.80;99.90
5061;DHT22;2549;52.128;21.068;2023-09-19T16:41:18;22.70;99.90
5061;DHT22;2549;52.128;21.068;2023-09-19T16:43:46;22.70;99.90
5061;DHT22;2549;52.128;21.068;2023-09-19T16:46:14;22.70;99.90